createdAt,value
2022-11-17T00:02:33.567Z,3.47
2022-11-17T00:06:28.496Z,3.97
2022-11-17T00:10:06.567Z,3.30
2022-11-17T00:14:16.558Z,3.37
2022-11-17T00:18:13.112Z,3.45
2022-11-17T00:22:04.884Z,3.15
2022-11-17T00:25:42.557Z,3.70
2022-11-17T00:29:39.424Z,3.50
2022-11-17T00:33:36.906Z,3.55
2022-11-17T00:37:28.526Z,3.97
2022-11-17T00:41:06.544Z,4.20
2022-11-17T00:44:58.548Z,3.85
2022-11-17T00:48:36.515Z,4.55
2022-11-17T00:52:28.499Z,3.70
2022-11-17T00:56:06.623Z,4.78
2022-11-17T00:59:58.514Z,4.00
2022-11-17T01:03:36.976Z,4.27
2022-11-17T01:07:29.573Z,4.07
2022-11-17T01:11:16.572Z,5.10
2022-11-17T01:15:08.581Z,5.57
2022-11-17T01:18:47.561Z,5.47
2022-11-17T01:22:39.941Z,5.80
2022-11-17T01:26:21.542Z,5.60
2022-11-17T01:30:13.532Z,5.30
2022-11-17T01:33:52.548Z,5.15
2022-11-17T01:37:44.506Z,4.32
2022-11-17T01:41:33.555Z,5.93
2022-11-17T01:45:32.540Z,5.72
2022-11-17T01:49:23.586Z,5.68
2022-11-17T01:53:20.514Z,5.22
2022-11-17T01:57:04.597Z,5.13
2022-11-17T02:00:56.562Z,5.15
2022-11-17T02:04:39.611Z,5.40
2022-11-17T02:08:35.528Z,5.57
2022-11-17T02:12:22.566Z,5.68
2022-11-17T02:16:07.527Z,4.38
2022-11-17T02:20:10.609Z,4.77
2022-11-17T02:24:32.785Z,4.68
2022-11-17T02:28:21.623Z,4.35
2022-11-17T02:32:13.611Z,4.80
2022-11-17T02:36:03.686Z,4.43
2022-11-17T02:39:58.569Z,4.68
2022-11-17T02:44:04.552Z,5.97
2022-11-17T02:47:53.551Z,5.13
2022-11-17T02:51:40.647Z,5.10
2022-11-17T02:55:25.683Z,5.97
2022-11-17T02:59:11.602Z,4.20
2022-11-17T03:03:14.567Z,5.10
2022-11-17T03:07:32.094Z,4.72
2022-11-17T03:11:18.586Z,4.82
2022-11-17T03:15:17.641Z,5.47
2022-11-17T03:19:24.607Z,5.80
2022-11-17T03:23:34.947Z,5.80
2022-11-17T03:27:37.827Z,5.80
2022-11-17T03:31:24.607Z,5.15
2022-11-17T03:35:21.600Z,5.72
2022-11-17T03:39:12.716Z,5.40
2022-11-17T03:43:01.542Z,5.72
2022-11-17T03:46:49.601Z,5.30
2022-11-17T03:50:39.558Z,5.40
2022-11-17T03:54:24.687Z,5.23
2022-11-17T03:58:15.568Z,6.30
2022-11-17T04:02:00.770Z,5.15
2022-11-17T04:05:45.585Z,4.87
2022-11-17T04:09:30.617Z,5.38
2022-11-17T04:13:40.557Z,5.43
2022-11-17T04:17:18.610Z,5.00
2022-11-17T04:21:10.569Z,5.80
2022-11-17T04:24:55.638Z,4.88
2022-11-17T04:28:45.725Z,6.00
2022-11-17T04:32:30.701Z,5.57
2022-11-17T04:36:16.557Z,5.30
2022-11-17T04:40:01.713Z,5.10
2022-11-17T04:43:46.584Z,5.57
2022-11-17T04:47:31.686Z,5.38
2022-11-17T04:51:17.620Z,5.68
2022-11-17T04:55:02.612Z,4.60
2022-11-17T04:58:48.587Z,4.22
2022-11-17T05:02:34.001Z,5.50
2022-11-17T05:06:38.713Z,4.93
2022-11-17T05:10:50.207Z,4.17
2022-11-17T05:14:36.605Z,5.15
2022-11-17T05:18:21.664Z,4.45
2022-11-17T05:22:07.610Z,4.17
2022-11-17T05:25:52.644Z,5.05
2022-11-17T05:29:37.754Z,4.68
2022-11-17T05:33:22.716Z,5.27
2022-11-17T05:37:07.617Z,5.00
2022-11-17T05:40:52.705Z,5.38
2022-11-17T05:44:37.628Z,4.90
2022-11-17T05:48:22.657Z,3.67
2022-11-17T05:52:07.648Z,4.72
2022-11-17T05:55:52.668Z,4.82
2022-11-17T05:59:59.630Z,4.90
2022-11-17T06:03:46.766Z,5.22
2022-11-17T06:07:38.670Z,4.72
2022-11-17T06:11:18.975Z,5.67
2022-11-17T06:15:10.685Z,5.25
2022-11-17T06:19:03.978Z,5.07
2022-11-17T06:22:56.715Z,4.68
2022-11-17T06:26:41.782Z,5.57
2022-11-17T06:30:27.082Z,5.43
2022-11-17T06:34:11.699Z,5.80
2022-11-17T06:37:56.881Z,3.90
2022-11-17T06:41:42.695Z,5.35
2022-11-17T06:45:27.626Z,4.80
2022-11-17T06:49:15.686Z,4.80
2022-11-17T06:53:08.654Z,4.88
2022-11-17T06:56:55.447Z,3.65
2022-11-17T07:00:46.793Z,4.95
2022-11-17T07:04:24.743Z,4.50
2022-11-17T07:08:16.699Z,4.28
2022-11-17T07:11:54.810Z,4.20
2022-11-17T07:15:46.678Z,4.27
2022-11-17T07:19:24.703Z,4.55
2022-11-17T07:23:16.669Z,3.47
2022-11-17T07:26:54.728Z,4.10
2022-11-17T07:30:46.941Z,4.20
2022-11-17T07:34:31.745Z,3.85
2022-11-17T07:38:23.699Z,4.15
2022-11-17T07:42:01.954Z,3.57
2022-11-17T07:45:53.728Z,4.82
2022-11-17T07:49:31.994Z,4.78
2022-11-17T07:53:23.733Z,4.03
2022-11-17T07:57:01.907Z,5.88
2022-11-17T08:00:53.696Z,3.67
2022-11-17T08:04:31.957Z,3.17
2022-11-17T08:08:23.696Z,4.95
2022-11-17T08:12:02.069Z,3.83
2022-11-17T08:15:53.693Z,2.72
2022-11-17T08:19:31.939Z,4.00
2022-11-17T08:23:23.714Z,3.75
2022-11-17T08:27:01.935Z,3.60
2022-11-17T08:30:53.928Z,4.97
2022-11-17T08:34:31.970Z,2.72
2022-11-17T08:38:23.769Z,4.13
2022-11-17T08:42:22.866Z,4.70
2022-11-17T08:46:20.711Z,4.95
2022-11-17T08:49:58.728Z,6.32
2022-11-17T08:53:50.720Z,4.85
2022-11-17T08:57:28.807Z,4.10
2022-11-17T09:01:22.802Z,5.03
2022-11-17T09:05:00.786Z,4.18
2022-11-17T09:08:52.921Z,4.37
2022-11-17T09:12:30.782Z,4.57
2022-11-17T09:16:23.709Z,4.82
2022-11-17T09:20:01.802Z,5.60
2022-11-17T09:23:53.715Z,4.57
2022-11-17T09:27:31.767Z,4.75
2022-11-17T09:31:26.080Z,5.50
2022-11-17T09:35:07.081Z,4.60
2022-11-17T09:38:59.891Z,4.35
2022-11-17T09:42:46.849Z,5.18
2022-11-17T09:46:46.827Z,5.33
2022-11-17T09:50:45.788Z,5.25
2022-11-17T09:54:43.747Z,5.07
2022-11-17T09:58:46.319Z,4.97
2022-11-17T10:02:31.781Z,5.07
2022-11-17T10:06:27.365Z,4.32
2022-11-17T10:10:13.766Z,5.70
2022-11-17T10:13:58.840Z,4.87
2022-11-17T10:17:45.814Z,4.75
2022-11-17T10:21:30.975Z,4.70
2022-11-17T10:25:53.721Z,3.57
2022-11-17T10:29:31.821Z,3.47
2022-11-17T10:33:24.971Z,4.22
2022-11-17T10:37:08.470Z,3.40
2022-11-17T10:40:59.737Z,3.72
2022-11-17T10:44:39.851Z,4.82
2022-11-17T10:48:37.737Z,4.40
2022-11-17T10:52:15.799Z,3.93
2022-11-17T10:56:11.820Z,3.72
2022-11-17T10:59:57.668Z,3.80
2022-11-17T11:03:56.770Z,6.23
2022-11-17T11:07:54.822Z,4.40
2022-11-17T11:12:08.764Z,3.17
2022-11-17T11:15:48.233Z,3.23
2022-11-17T11:19:40.746Z,2.85
2022-11-17T11:23:43.938Z,3.47
2022-11-17T11:27:56.777Z,3.35
2022-11-17T11:31:40.772Z,4.57
2022-11-17T11:35:51.019Z,5.25
2022-11-17T11:39:50.803Z,4.40
2022-11-17T11:44:16.761Z,3.17
2022-11-17T11:48:09.885Z,3.47
2022-11-17T11:52:01.834Z,3.03
2022-11-17T11:55:43.799Z,4.27
2022-11-17T11:59:46.761Z,4.22
2022-11-17T12:03:41.793Z,3.10
2022-11-17T12:07:55.846Z,3.60
2022-11-17T12:11:52.713Z,3.57
2022-11-17T12:15:44.754Z,2.72
2022-11-17T12:19:50.810Z,3.97
2022-11-17T12:24:09.127Z,3.60
2022-11-17T12:27:58.814Z,3.33
2022-11-17T12:31:49.793Z,3.08
2022-11-17T12:35:35.810Z,2.77
2022-11-17T12:39:59.094Z,2.85
2022-11-17T12:43:43.806Z,3.33
2022-11-17T12:47:39.852Z,4.07
2022-11-17T12:51:41.773Z,3.30
2022-11-17T12:55:35.818Z,3.42
2022-11-17T12:59:45.854Z,2.97
2022-11-17T13:04:13.004Z,3.00
2022-11-17T13:08:15.795Z,3.30
2022-11-17T13:12:14.830Z,3.28
2022-11-17T13:16:02.874Z,4.13
2022-11-17T13:19:47.874Z,3.75
2022-11-17T13:23:35.822Z,3.80
2022-11-17T13:27:37.798Z,4.22
2022-11-17T13:31:27.852Z,4.93
2022-11-17T13:35:31.865Z,10.00
2022-11-17T13:39:10.841Z,18.58
2022-11-17T13:43:03.918Z,7.30
2022-11-17T13:46:42.822Z,9.23
2022-11-17T13:50:35.862Z,4.10
2022-11-17T13:54:22.881Z,8.90
2022-11-17T13:58:28.992Z,5.35
2022-11-17T14:02:22.923Z,5.03
2022-11-17T14:06:19.931Z,4.88
2022-11-17T14:10:27.735Z,5.70
2022-11-17T14:14:20.806Z,5.88
2022-11-17T14:18:05.156Z,5.18
2022-11-17T14:22:22.373Z,7.17
2022-11-17T14:26:01.821Z,5.97
2022-11-17T14:29:53.818Z,6.38
2022-11-17T14:33:31.830Z,6.17
2022-11-17T14:37:23.855Z,6.38
2022-11-17T14:41:01.830Z,6.10
2022-11-17T14:44:54.074Z,12.25
2022-11-17T14:48:32.814Z,5.63
2022-11-17T14:52:24.888Z,10.27
2022-11-17T14:56:02.874Z,6.88
2022-11-17T14:59:54.834Z,5.63
2022-11-17T15:03:32.928Z,6.32
2022-11-17T15:07:24.911Z,5.45
2022-11-17T15:11:03.922Z,5.93
2022-11-17T15:14:55.883Z,5.20
2022-11-17T15:18:34.831Z,8.15
2022-11-17T15:22:26.891Z,8.95
2022-11-17T15:26:05.867Z,14.97
2022-11-17T15:29:57.862Z,13.10
2022-11-17T15:33:35.867Z,10.25
2022-11-17T15:37:27.845Z,7.70
2022-11-17T15:41:06.858Z,8.13
2022-11-17T15:44:59.104Z,7.00
2022-11-17T15:48:40.081Z,6.13
2022-11-17T15:52:56.695Z,9.05
2022-11-17T15:56:36.937Z,7.30
2022-11-17T16:00:28.852Z,6.88
2022-11-17T16:04:17.936Z,8.03
2022-11-17T16:08:09.884Z,6.45
2022-11-17T16:11:47.986Z,10.82
2022-11-17T16:15:39.879Z,7.97
2022-11-17T16:19:18.919Z,10.20
2022-11-17T16:23:10.895Z,10.60
2022-11-17T16:26:55.885Z,7.20
2022-11-17T16:30:47.889Z,11.82
2022-11-17T16:34:26.295Z,9.63
2022-11-17T16:38:22.903Z,8.60
2022-11-17T16:42:01.555Z,7.97
2022-11-17T16:45:53.260Z,7.50
2022-11-17T16:49:32.721Z,7.30
2022-11-17T16:53:24.885Z,8.57
2022-11-17T16:57:02.921Z,6.32
2022-11-17T17:00:55.032Z,5.88
2022-11-17T17:04:35.989Z,6.80
2022-11-17T17:08:27.874Z,7.35
2022-11-17T17:12:05.890Z,6.63
2022-11-17T17:15:58.895Z,7.15
2022-11-17T17:19:37.001Z,7.30
2022-11-17T17:23:28.912Z,7.28
2022-11-17T17:27:07.266Z,7.85
2022-11-17T17:31:01.927Z,5.97
2022-11-17T17:34:39.925Z,7.13
2022-11-17T17:38:32.869Z,7.15
2022-11-17T17:42:10.923Z,8.80
2022-11-17T17:46:15.331Z,8.52
2022-11-17T17:49:54.958Z,8.70
2022-11-17T17:53:47.986Z,8.63
2022-11-17T17:57:28.692Z,7.73
2022-11-17T18:01:30.982Z,9.02
2022-11-17T18:05:08.937Z,7.82
2022-11-17T18:09:00.906Z,8.80
2022-11-17T18:12:39.035Z,7.88
2022-11-17T18:16:36.903Z,8.68
2022-11-17T18:20:16.100Z,8.60
2022-11-17T18:24:08.905Z,9.25
2022-11-17T18:27:46.921Z,9.27
2022-11-17T18:31:40.935Z,10.90
2022-11-17T18:35:18.903Z,10.63
2022-11-17T18:39:10.969Z,9.80
2022-11-17T18:42:48.910Z,12.13
2022-11-17T18:46:41.257Z,10.33
2022-11-17T18:50:19.935Z,8.90
2022-11-17T18:54:11.912Z,9.27
2022-11-17T18:57:50.234Z,10.53
2022-11-17T19:01:41.998Z,10.98
2022-11-17T19:05:20.919Z,10.77
2022-11-17T19:09:13.029Z,10.68
2022-11-17T19:12:52.048Z,10.90
2022-11-17T19:16:45.244Z,10.35
2022-11-17T19:20:25.875Z,10.70
2022-11-17T19:24:18.098Z,11.13
2022-11-17T19:27:58.309Z,10.18
2022-11-17T19:31:50.017Z,10.02
2022-11-17T19:35:29.028Z,9.97
2022-11-17T19:39:20.974Z,10.43
2022-11-17T19:42:59.004Z,10.55
2022-11-17T19:46:51.246Z,9.10
2022-11-17T19:50:31.798Z,9.40
2022-11-17T19:54:23.967Z,9.35
2022-11-17T19:58:02.056Z,11.43
2022-11-17T20:01:54.045Z,10.17
2022-11-17T20:05:33.028Z,11.20
2022-11-17T20:09:24.978Z,10.25
2022-11-17T20:13:03.946Z,10.60
2022-11-17T20:16:57.335Z,10.30
2022-11-17T20:20:37.442Z,10.45
2022-11-17T20:24:29.776Z,10.07
2022-11-17T20:28:08.561Z,9.03
2022-11-17T20:32:00.157Z,10.05
2022-11-17T20:35:40.316Z,9.70
2022-11-17T20:39:34.213Z,9.03
2022-11-17T20:43:21.012Z,10.02
2022-11-17T20:47:06.454Z,8.82
2022-11-17T20:51:12.119Z,10.77
2022-11-17T20:54:56.975Z,19.65
2022-11-17T20:58:43.015Z,15.93
2022-11-17T21:02:28.276Z,12.10
2022-11-17T21:06:14.016Z,10.00
2022-11-17T21:09:59.001Z,9.15
2022-11-17T21:13:44.986Z,11.77
2022-11-17T21:17:49.007Z,10.40
2022-11-17T21:21:34.019Z,8.88
2022-11-17T21:25:18.963Z,9.75
2022-11-17T21:29:17.251Z,10.43
2022-11-17T21:33:02.045Z,9.50
2022-11-17T21:36:47.050Z,9.90
2022-11-17T21:40:39.035Z,10.25
2022-11-17T21:44:18.990Z,9.33
2022-11-17T21:48:11.259Z,10.30
2022-11-17T21:51:49.975Z,9.68
2022-11-17T21:55:41.983Z,10.10
2022-11-17T21:59:20.989Z,9.50
2022-11-17T22:03:12.995Z,9.85
2022-11-17T22:06:52.272Z,10.33
2022-11-17T22:10:43.980Z,11.13
2022-11-17T22:14:25.246Z,10.95
2022-11-17T22:18:17.016Z,9.88
2022-11-17T22:21:58.109Z,9.40
2022-11-17T22:25:50.063Z,12.18
2022-11-17T22:29:29.098Z,11.93
2022-11-17T22:33:21.052Z,10.90
2022-11-17T22:37:06.210Z,11.82
2022-11-17T22:40:51.018Z,11.82
2022-11-17T22:44:36.047Z,12.60
2022-11-17T22:48:21.385Z,11.93
2022-11-17T22:52:08.675Z,11.85
2022-11-17T22:55:54.039Z,13.15
2022-11-17T22:59:39.074Z,11.43
2022-11-17T23:03:24.157Z,13.45
2022-11-17T23:07:09.051Z,11.65
2022-11-17T23:11:14.976Z,13.60
2022-11-17T23:14:59.019Z,13.45
2022-11-17T23:18:43.995Z,12.68
2022-11-17T23:22:29.093Z,11.70
2022-11-17T23:26:17.025Z,11.25
2022-11-17T23:30:01.996Z,9.98
2022-11-17T23:33:49.032Z,10.32
2022-11-17T23:37:35.028Z,10.57
2022-11-17T23:41:21.963Z,11.80
2022-11-17T23:45:07.460Z,9.63
2022-11-17T23:48:52.446Z,11.13
2022-11-17T23:52:38.042Z,10.07
2022-11-17T23:56:24.024Z,11.32
